sensor_id;sensor_type;location;lat;lon;timestamp;temperature;humidity
1461;DHT22;724;49.910;12.530;2024-03-25T00:00:42;2.00;99.90
1461;DHT22;724;49.910;12.530;2024-03-25T00:03:09;2.00;99.90
1461;DHT22;724;49.910;12.530;2024-03-25T00:05:35;1.90;99.90
1461;DHT22;724;49.910;12.530;2024-03-25T00:08:02;2.00;99.90
1461;DHT22;724;49.910;12.530;2024-03-25T00:10:29;1.90;99.90
1461;DHT22;724;49.910;12.530;2024-03-25T00:12:54;1.90;99.90
1461;DHT22;724;49.910;12.530;2024-03-25T00:15:22;1.80;99.90
1461;DHT22;724;49.910;12.530;2024-03-25T00:17:49;1.90;99.90
1461;DHT22;724;49.910;12.530;2024-03-25T00:20:17;1.80;99.90
1461;DHT22;724;49.910;12.530;2024-03-25T00:22:43;1.90;99.90
1461;DHT22;724;49.910;12.530;2024-03-25T00:25:10;1.90;99.90
1461;DHT22;724;49.910;12.530;2024-03-25T00:27:36;1.90;99.90
1461;DHT22;724;49.910;12.530;2024-03-25T00:30:03;1.90;99.90
1461;DHT22;724;49.910;12.530;2024-03-25T00:32:30;1.80;99.90
1461;DHT22;724;49.910;12.530;2024-03-25T00:34:57;1.90;99.90
1461;DHT22;724;49.910;12.530;2024-03-25T00:37:24;1.80;99.90
1461;DHT22;724;49.910;12.530;2024-03-25T00:39:51;1.90;99.90
1461;DHT22;724;49.910;12.530;2024-03-25T00:42:17;1.80;99.90
1461;DHT22;724;49.910;12.530;2024-03-25T00:44:43;1.90;99.90
1461;DHT22;724;49.910;12.530;2024-03-25T00:47:09;1.80;99.90
1461;DHT22;724;49.910;12.530;2024-03-25T00:49:36;1.80;99.90
1461;DHT22;724;49.910;12.530;2024-03-25T00:52:02;1.80;99.90
1461;DHT22;724;49.910;12.530;2024-03-25T00:54:30;1.70;99.90
1461;DHT22;724;49.910;12.530;2024-03-25T00:56:56;1.80;99.90
1461;DHT22;724;49.910;12.530;2024-03-25T00:59:23;1.80;99.90
1461;DHT22;724;49.910;12.530;2024-03-25T01:01:48;1.80;99.90
1461;DHT22;724;49.910;12.530;2024-03-25T01:04:16;1.80;99.90
1461;DHT22;724;49.910;12.530;2024-03-25T01:06:41;1.80;99.90
1461;DHT22;724;49.910;12.530;2024-03-25T01:09:08;1.90;99.90
1461;DHT22;724;49.910;12.530;2024-03-25T01:11:36;1.80;99.90
1461;DHT22;724;49.910;12.530;2024-03-25T01:14:03;1.90;99.90
1461;DHT22;724;49.910;12.530;2024-03-25T01:16:29;1.80;99.90
1461;DHT22;724;49.910;12.530;2024-03-25T01:18:56;1.80;99.90
1461;DHT22;724;49.910;12.530;2024-03-25T01:21:22;1.90;99.90
1461;DHT22;724;49.910;12.530;2024-03-25T01:23:48;1.80;99.90
1461;DHT22;724;49.910;12.530;2024-03-25T01:26:15;1.80;99.90
1461;DHT22;724;49.910;12.530;2024-03-25T01:28:43;1.70;99.90
1461;DHT22;724;49.910;12.530;2024-03-25T01:31:09;1.80;99.90
1461;DHT22;724;49.910;12.530;2024-03-25T01:33:36;1.80;99.90
1461;DHT22;724;49.910;12.530;2024-03-25T01:36:03;1.80;99.90
1461;DHT22;724;49.910;12.530;2024-03-25T01:38:28;1.80;99.90
1461;DHT22;724;49.910;12.530;2024-03-25T01:40:55;1.90;99.90
1461;DHT22;724;49.910;12.530;2024-03-25T01:43:22;1.80;99.90
1461;DHT22;724;49.910;12.530;2024-03-25T01:45:53;1.80;99.90
1461;DHT22;724;49.910;12.530;2024-03-25T01:48:20;1.80;99.90
1461;DHT22;724;49.910;12.530;2024-03-25T01:50:47;1.80;99.90
1461;DHT22;724;49.910;12.530;2024-03-25T01:53:13;1.80;99.90
1461;DHT22;724;49.910;12.530;2024-03-25T01:55:41;1.80;99.90
1461;DHT22;724;49.910;12.530;2024-03-25T01:58:08;1.80;99.90
1461;DHT22;724;49.910;12.530;2024-03-25T02:00:35;1.80;99.90
1461;DHT22;724;49.910;12.530;2024-03-25T02:03:03;1.80;99.90
1461;DHT22;724;49.910;12.530;2024-03-25T02:05:31;1.80;99.90
1461;DHT22;724;49.910;12.530;2024-03-25T02:07:57;1.80;99.90
1461;DHT22;724;49.910;12.530;2024-03-25T02:10:25;1.80;99.90
1461;DHT22;724;49.910;12.530;2024-03-25T02:12:51;1.80;99.90
1461;DHT22;724;49.910;12.530;2024-03-25T02:15:18;1.90;99.90
1461;DHT22;724;49.910;12.530;2024-03-25T02:17:44;1.90;99.90
1461;DHT22;724;49.910;12.530;2024-03-25T02:20:12;1.90;99.90
1461;DHT22;724;49.910;12.530;2024-03-25T02:22:41;1.90;99.90
1461;DHT22;724;49.910;12.530;2024-03-25T02:25:09;1.90;99.90
1461;DHT22;724;49.910;12.530;2024-03-25T02:27:37;1.90;99.90
1461;DHT22;724;49.910;12.530;2024-03-25T02:30:05;2.00;99.90
1461;DHT22;724;49.910;12.530;2024-03-25T02:32:31;2.00;99.90
1461;DHT22;724;49.910;12.530;2024-03-25T02:34:58;2.00;99.90
1461;DHT22;724;49.910;12.530;2024-03-25T02:37:24;2.00;99.90
1461;DHT22;724;49.910;12.530;2024-03-25T02:39:53;2.00;99.90
1461;DHT22;724;49.910;12.530;2024-03-25T02:42:20;2.00;99.90
1461;DHT22;724;49.910;12.530;2024-03-25T02:44:49;1.90;99.90
1461;DHT22;724;49.910;12.530;2024-03-25T02:47:15;2.00;99.90
1461;DHT22;724;49.910;12.530;2024-03-25T02:49:43;2.00;99.90
1461;DHT22;724;49.910;12.530;2024-03-25T02:52:09;2.00;99.90
1461;DHT22;724;49.910;12.530;2024-03-25T02:54:35;2.00;99.90
1461;DHT22;724;49.910;12.530;2024-03-25T02:57:01;1.90;99.90
1461;DHT22;724;49.910;12.530;2024-03-25T02:59:28;2.00;99.90
1461;DHT22;724;49.910;12.530;2024-03-25T03:01:55;2.00;99.90
1461;DHT22;724;49.910;12.530;2024-03-25T03:04:22;1.90;99.90
1461;DHT22;724;49.910;12.530;2024-03-25T03:06:47;1.90;99.90
1461;DHT22;724;49.910;12.530;2024-03-25T03:09:14;2.00;99.90
1461;DHT22;724;49.910;12.530;2024-03-25T03:11:40;1.90;99.90
1461;DHT22;724;49.910;12.530;2024-03-25T03:14:07;1.90;99.90
1461;DHT22;724;49.910;12.530;2024-03-25T03:16:33;1.90;99.90
1461;DHT22;724;49.910;12.530;2024-03-25T03:19:01;1.90;99.90
1461;DHT22;724;49.910;12.530;2024-03-25T03:21:27;2.00;99.90
1461;DHT22;724;49.910;12.530;2024-03-25T03:23:55;2.00;99.90
1461;DHT22;724;49.910;12.530;2024-03-25T03:26:21;1.90;99.90
1461;DHT22;724;49.910;12.530;2024-03-25T03:28:52;1.90;99.90
1461;DHT22;724;49.910;12.530;2024-03-25T03:31:18;1.80;99.90
1461;DHT22;724;49.910;12.530;2024-03-25T03:33:46;1.80;99.90
1461;DHT22;724;49.910;12.530;2024-03-25T03:36:14;1.80;99.90
1461;DHT22;724;49.910;12.530;2024-03-25T03:38:40;1.80;99.90
1461;DHT22;724;49.910;12.530;2024-03-25T03:41:06;1.80;99.90
1461;DHT22;724;49.910;12.530;2024-03-25T03:43:33;1.80;99.90
1461;DHT22;724;49.910;12.530;2024-03-25T03:45:59;1.80;99.90
1461;DHT22;724;49.910;12.530;2024-03-25T03:48:25;1.70;99.90
1461;DHT22;724;49.910;12.530;2024-03-25T03:50:51;1.60;99.90
1461;DHT22;724;49.910;12.530;2024-03-25T03:53:20;1.70;99.90
1461;DHT22;724;49.910;12.530;2024-03-25T03:55:53;1.70;99.90
1461;DHT22;724;49.910;12.530;2024-03-25T03:58:20;1.60;99.90
1461;DHT22;724;49.910;12.530;2024-03-25T04:00:46;1.70;99.90
1461;DHT22;724;49.910;12.530;2024-03-25T04:03:13;1.70;99.90
1461;DHT22;724;49.910;12.530;2024-03-25T04:05:38;1.70;99.90
1461;DHT22;724;49.910;12.530;2024-03-25T04:08:06;1.60;99.90
1461;DHT22;724;49.910;12.530;2024-03-25T04:10:33;1.50;99.90
1461;DHT22;724;49.910;12.530;2024-03-25T04:13:00;1.60;99.90
1461;DHT22;724;49.910;12.530;2024-03-25T04:15:26;1.60;99.90
1461;DHT22;724;49.910;12.530;2024-03-25T04:17:53;1.60;99.90
1461;DHT22;724;49.910;12.530;2024-03-25T04:20:19;1.60;99.90
1461;DHT22;724;49.910;12.530;2024-03-25T04:22:46;1.70;99.90
1461;DHT22;724;49.910;12.530;2024-03-25T04:25:12;1.60;99.90
1461;DHT22;724;49.910;12.530;2024-03-25T04:27:41;1.70;99.90
1461;DHT22;724;49.910;12.530;2024-03-25T04:30:07;1.60;99.90
1461;DHT22;724;49.910;12.530;2024-03-25T04:32:35;1.60;99.90
1461;DHT22;724;49.910;12.530;2024-03-25T04:35:01;1.60;99.90
1461;DHT22;724;49.910;12.530;2024-03-25T04:37:29;1.60;99.90
1461;DHT22;724;49.910;12.530;2024-03-25T04:39:55;1.70;99.90
1461;DHT22;724;49.910;12.530;2024-03-25T04:42:21;1.60;99.90
1461;DHT22;724;49.910;12.530;2024-03-25T04:44:48;1.60;99.90
1461;DHT22;724;49.910;12.530;2024-03-25T04:47:14;1.60;99.90
1461;DHT22;724;49.910;12.530;2024-03-25T04:49:40;1.60;99.90
1461;DHT22;724;49.910;12.530;2024-03-25T04:52:06;1.50;99.90
1461;DHT22;724;49.910;12.530;2024-03-25T04:54:32;1.60;99.90
1461;DHT22;724;49.910;12.530;2024-03-25T04:56:58;1.50;99.90
1461;DHT22;724;49.910;12.530;2024-03-25T04:59:24;1.60;99.90
1461;DHT22;724;49.910;12.530;2024-03-25T05:01:51;1.60;99.90
1461;DHT22;724;49.910;12.530;2024-03-25T05:04:18;1.50;99.90
1461;DHT22;724;49.910;12.530;2024-03-25T05:06:44;1.50;99.90
1461;DHT22;724;49.910;12.530;2024-03-25T05:09:09;1.50;99.90
1461;DHT22;724;49.910;12.530;2024-03-25T05:11:35;1.40;99.90
1461;DHT22;724;49.910;12.530;2024-03-25T05:14:01;1.40;99.90
1461;DHT22;724;49.910;12.530;2024-03-25T05:16:27;1.40;99.90
1461;DHT22;724;49.910;12.530;2024-03-25T05:18:54;1.40;99.90
1461;DHT22;724;49.910;12.530;2024-03-25T05:21:20;1.40;99.90
1461;DHT22;724;49.910;12.530;2024-03-25T05:23:46;1.40;99.90
1461;DHT22;724;49.910;12.530;2024-03-25T05:26:12;1.40;99.90
1461;DHT22;724;49.910;12.530;2024-03-25T05:28:38;1.40;99.90
1461;DHT22;724;49.910;12.530;2024-03-25T05:31:07;1.60;99.90
1461;DHT22;724;49.910;12.530;2024-03-25T05:33:33;1.80;99.90
1461;DHT22;724;49.910;12.530;2024-03-25T05:36:01;1.70;99.90
1461;DHT22;724;49.910;12.530;2024-03-25T05:38:27;1.90;99.90
1461;DHT22;724;49.910;12.530;2024-03-25T05:40:53;1.80;99.90
1461;DHT22;724;49.910;12.530;2024-03-25T05:43:19;1.70;99.90
1461;DHT22;724;49.910;12.530;2024-03-25T05:45:50;1.70;99.90
1461;DHT22;724;49.910;12.530;2024-03-25T05:48:16;1.80;99.90
1461;DHT22;724;49.910;12.530;2024-03-25T05:50:42;1.70;99.90
1461;DHT22;724;49.910;12.530;2024-03-25T05:53:09;1.80;99.90
1461;DHT22;724;49.910;12.530;2024-03-25T05:55:35;2.70;99.90
1461;DHT22;724;49.910;12.530;2024-03-25T05:58:01;4.00;1.00
1461;DHT22;724;49.910;12.530;2024-03-25T06:00:27;4.50;1.00
1461;DHT22;724;49.910;12.530;2024-03-25T06:02:53;5.20;1.00
1461;DHT22;724;49.910;12.530;2024-03-25T06:05:19;5.70;99.90
1461;DHT22;724;49.910;12.530;2024-03-25T06:07:45;5.10;1.00
1461;DHT22;724;49.910;12.530;2024-03-25T06:10:12;4.20;1.00
1461;DHT22;724;49.910;12.530;2024-03-25T06:12:38;3.40;1.00
1461;DHT22;724;49.910;12.530;2024-03-25T06:15:04;2.90;99.90
1461;DHT22;724;49.910;12.530;2024-03-25T06:17:30;2.70;1.00
1461;DHT22;724;49.910;12.530;2024-03-25T06:19:56;2.60;99.90
1461;DHT22;724;49.910;12.530;2024-03-25T06:22:22;2.50;99.90
1461;DHT22;724;49.910;12.530;2024-03-25T06:24:48;2.60;1.00
1461;DHT22;724;49.910;12.530;2024-03-25T06:27:16;2.50;1.00
1461;DHT22;724;49.910;12.530;2024-03-25T06:29:41;2.50;1.00
1461;DHT22;724;49.910;12.530;2024-03-25T06:32:08;2.60;1.00
1461;DHT22;724;49.910;12.530;2024-03-25T06:34:52;2.70;1.00
1461;DHT22;724;49.910;12.530;2024-03-25T06:37:18;3.20;99.90
1461;DHT22;724;49.910;12.530;2024-03-25T06:39:44;3.10;1.00
1461;DHT22;724;49.910;12.530;2024-03-25T06:42:09;2.70;1.00
1461;DHT22;724;49.910;12.530;2024-03-25T06:44:37;2.70;99.90
1461;DHT22;724;49.910;12.530;2024-03-25T06:47:03;2.70;99.90
1461;DHT22;724;49.910;12.530;2024-03-25T06:49:28;2.60;99.90
1461;DHT22;724;49.910;12.530;2024-03-25T06:51:54;2.70;1.00
1461;DHT22;724;49.910;12.530;2024-03-25T06:54:20;2.70;1.00
1461;DHT22;724;49.910;12.530;2024-03-25T06:56:46;2.70;1.00
1461;DHT22;724;49.910;12.530;2024-03-25T06:59:12;2.90;1.00
1461;DHT22;724;49.910;12.530;2024-03-25T07:01:39;2.60;1.00
1461;DHT22;724;49.910;12.530;2024-03-25T07:04:05;2.30;1.00
1461;DHT22;724;49.910;12.530;2024-03-25T07:06:30;2.30;99.90
1461;DHT22;724;49.910;12.530;2024-03-25T07:08:56;2.20;1.00
1461;DHT22;724;49.910;12.530;2024-03-25T07:11:22;2.30;1.00
1461;DHT22;724;49.910;12.530;2024-03-25T07:13:48;2.30;1.00
1461;DHT22;724;49.910;12.530;2024-03-25T07:16:14;2.30;1.00
1461;DHT22;724;49.910;12.530;2024-03-25T07:18:41;2.40;1.00
1461;DHT22;724;49.910;12.530;2024-03-25T07:21:07;2.40;1.00
1461;DHT22;724;49.910;12.530;2024-03-25T07:23:32;2.60;1.00
1461;DHT22;724;49.910;12.530;2024-03-25T07:25:58;2.60;1.00
1461;DHT22;724;49.910;12.530;2024-03-25T07:28:24;2.70;1.00
1461;DHT22;724;49.910;12.530;2024-03-25T07:30:50;2.80;99.90
1461;DHT22;724;49.910;12.530;2024-03-25T07:33:16;3.00;99.90
1461;DHT22;724;49.910;12.530;2024-03-25T07:35:44;3.40;89.20
1461;DHT22;724;49.910;12.530;2024-03-25T07:38:10;3.20;1.00
1461;DHT22;724;49.910;12.530;2024-03-25T07:40:36;3.10;1.00
1461;DHT22;724;49.910;12.530;2024-03-25T07:43:02;3.00;1.00
1461;DHT22;724;49.910;12.530;2024-03-25T07:45:28;2.70;1.00
1461;DHT22;724;49.910;12.530;2024-03-25T07:47:54;2.80;1.00
1461;DHT22;724;49.910;12.530;2024-03-25T07:50:20;2.90;1.00
1461;DHT22;724;49.910;12.530;2024-03-25T07:52:47;2.60;1.00
1461;DHT22;724;49.910;12.530;2024-03-25T07:55:13;2.50;1.00
1461;DHT22;724;49.910;12.530;2024-03-25T07:57:39;2.70;99.90
1461;DHT22;724;49.910;12.530;2024-03-25T08:00:07;2.80;99.90
1461;DHT22;724;49.910;12.530;2024-03-25T08:02:33;2.60;45.40
1461;DHT22;724;49.910;12.530;2024-03-25T08:04:59;2.70;18.30
1461;DHT22;724;49.910;12.530;2024-03-25T08:07:24;3.10;1.00
1461;DHT22;724;49.910;12.530;2024-03-25T08:09:56;3.20;1.00
1461;DHT22;724;49.910;12.530;2024-03-25T08:12:22;3.10;1.00
1461;DHT22;724;49.910;12.530;2024-03-25T08:14:48;3.10;1.00
1461;DHT22;724;49.910;12.530;2024-03-25T08:17:14;3.20;1.00
1461;DHT22;724;49.910;12.530;2024-03-25T08:19:39;3.40;99.90
1461;DHT22;724;49.910;12.530;2024-03-25T08:22:05;3.70;99.90
1461;DHT22;724;49.910;12.530;2024-03-25T08:24:31;3.40;1.00
1461;DHT22;724;49.910;12.530;2024-03-25T08:26:58;3.30;1.00
1461;DHT22;724;49.910;12.530;2024-03-25T08:29:24;3.40;1.00
1461;DHT22;724;49.910;12.530;2024-03-25T08:31:50;3.40;1.00
1461;DHT22;724;49.910;12.530;2024-03-25T08:34:19;3.50;1.00
1461;DHT22;724;49.910;12.530;2024-03-25T08:36:44;3.50;1.00
1461;DHT22;724;49.910;12.530;2024-03-25T08:39:10;3.50;1.00
1461;DHT22;724;49.910;12.530;2024-03-25T08:41:36;3.50;99.90
1461;DHT22;724;49.910;12.530;2024-03-25T08:44:04;3.60;1.00
1461;DHT22;724;49.910;12.530;2024-03-25T08:46:30;3.80;99.90
1461;DHT22;724;49.910;12.530;2024-03-25T08:48:55;3.70;99.90
1461;DHT22;724;49.910;12.530;2024-03-25T08:51:21;3.80;99.90
1461;DHT22;724;49.910;12.530;2024-03-25T08:53:47;3.60;99.90
1461;DHT22;724;49.910;12.530;2024-03-25T08:56:13;3.30;99.90
1461;DHT22;724;49.910;12.530;2024-03-25T08:58:39;3.20;99.90
1461;DHT22;724;49.910;12.530;2024-03-25T09:01:06;3.30;99.90
1461;DHT22;724;49.910;12.530;2024-03-25T09:03:32;3.30;99.90
1461;DHT22;724;49.910;12.530;2024-03-25T09:05:58;3.30;99.90
1461;DHT22;724;49.910;12.530;2024-03-25T09:08:24;3.30;99.90
1461;DHT22;724;49.910;12.530;2024-03-25T09:10:50;3.50;29.20
1461;DHT22;724;49.910;12.530;2024-03-25T09:13:31;3.50;1.00
1461;DHT22;724;49.910;12.530;2024-03-25T09:15:57;3.50;1.00
1461;DHT22;724;49.910;12.530;2024-03-25T09:18:24;3.60;1.00
1461;DHT22;724;49.910;12.530;2024-03-25T09:20:50;3.80;1.00
1461;DHT22;724;49.910;12.530;2024-03-25T09:23:16;3.90;1.00
1461;DHT22;724;49.910;12.530;2024-03-25T09:25:51;3.60;1.00
1461;DHT22;724;49.910;12.530;2024-03-25T09:28:17;3.70;1.00
1461;DHT22;724;49.910;12.530;2024-03-25T09:30:43;3.60;91.90
1461;DHT22;724;49.910;12.530;2024-03-25T09:33:09;3.40;99.90
1461;DHT22;724;49.910;12.530;2024-03-25T09:35:36;3.60;99.90
1461;DHT22;724;49.910;12.530;2024-03-25T09:38:02;3.50;99.90
1461;DHT22;724;49.910;12.530;2024-03-25T09:40:29;3.60;99.90
1461;DHT22;724;49.910;12.530;2024-03-25T09:42:56;3.50;99.90
1461;DHT22;724;49.910;12.530;2024-03-25T09:45:24;3.50;1.00
1461;DHT22;724;49.910;12.530;2024-03-25T09:47:51;3.60;1.00
1461;DHT22;724;49.910;12.530;2024-03-25T09:50:17;3.70;1.00
1461;DHT22;724;49.910;12.530;2024-03-25T09:52:47;3.70;1.00
1461;DHT22;724;49.910;12.530;2024-03-25T09:55:14;3.80;1.00
1461;DHT22;724;49.910;12.530;2024-03-25T09:57:40;3.90;1.00
1461;DHT22;724;49.910;12.530;2024-03-25T10:00:08;4.00;1.00
1461;DHT22;724;49.910;12.530;2024-03-25T10:02:34;3.70;1.00
1461;DHT22;724;49.910;12.530;2024-03-25T10:05:01;3.50;1.00
1461;DHT22;724;49.910;12.530;2024-03-25T10:07:28;3.90;1.00
1461;DHT22;724;49.910;12.530;2024-03-25T10:09:58;3.90;1.00
1461;DHT22;724;49.910;12.530;2024-03-25T10:12:24;3.60;1.00
1461;DHT22;724;49.910;12.530;2024-03-25T10:14:50;3.60;1.00
1461;DHT22;724;49.910;12.530;2024-03-25T10:17:16;3.50;1.00
1461;DHT22;724;49.910;12.530;2024-03-25T10:19:41;3.50;1.00
1461;DHT22;724;49.910;12.530;2024-03-25T10:22:08;3.70;1.00
1461;DHT22;724;49.910;12.530;2024-03-25T10:24:38;4.00;1.00
1461;DHT22;724;49.910;12.530;2024-03-25T10:27:09;4.10;1.00
1461;DHT22;724;49.910;12.530;2024-03-25T10:29:35;4.10;99.90
1461;DHT22;724;49.910;12.530;2024-03-25T10:32:01;4.40;99.90
1461;DHT22;724;49.910;12.530;2024-03-25T10:34:27;4.60;99.90
1461;DHT22;724;49.910;12.530;2024-03-25T10:36:56;5.00;1.00
1461;DHT22;724;49.910;12.530;2024-03-25T10:39:27;5.60;1.00
1461;DHT22;724;49.910;12.530;2024-03-25T10:41:56;6.50;1.00
1461;DHT22;724;49.910;12.530;2024-03-25T10:44:24;7.20;1.00
1461;DHT22;724;49.910;12.530;2024-03-25T10:46:55;7.30;99.90
1461;DHT22;724;49.910;12.530;2024-03-25T10:49:32;7.10;99.90
1461;DHT22;724;49.910;12.530;2024-03-25T10:52:00;7.20;99.90
1461;DHT22;724;49.910;12.530;2024-03-25T10:54:26;7.00;99.90
1461;DHT22;724;49.910;12.530;2024-03-25T10:56:54;6.80;99.90
1461;DHT22;724;49.910;12.530;2024-03-25T10:59:21;6.90;99.90
1461;DHT22;724;49.910;12.530;2024-03-25T11:01:49;6.50;13.40
1461;DHT22;724;49.910;12.530;2024-03-25T11:04:15;6.70;14.60
1461;DHT22;724;49.910;12.530;2024-03-25T11:06:41;7.00;34.60
1461;DHT22;724;49.910;12.530;2024-03-25T11:09:07;8.20;72.50
1461;DHT22;724;49.910;12.530;2024-03-25T11:11:33;9.90;1.00
1461;DHT22;724;49.910;12.530;2024-03-25T11:13:59;8.80;1.00
1461;DHT22;724;49.910;12.530;2024-03-25T11:16:29;8.30;1.00
1461;DHT22;724;49.910;12.530;2024-03-25T11:19:01;8.20;1.00
1461;DHT22;724;49.910;12.530;2024-03-25T11:21:27;8.10;1.00
1461;DHT22;724;49.910;12.530;2024-03-25T11:23:53;8.80;1.00
1461;DHT22;724;49.910;12.530;2024-03-25T11:26:20;8.70;1.00
1461;DHT22;724;49.910;12.530;2024-03-25T11:28:46;8.00;1.00
1461;DHT22;724;49.910;12.530;2024-03-25T11:31:12;7.50;1.00
1461;DHT22;724;49.910;12.530;2024-03-25T11:33:39;9.20;1.00
1461;DHT22;724;49.910;12.530;2024-03-25T11:36:07;9.30;1.00
1461;DHT22;724;49.910;12.530;2024-03-25T11:38:33;9.60;1.00
1461;DHT22;724;49.910;12.530;2024-03-25T11:40:58;8.70;1.00
1461;DHT22;724;49.910;12.530;2024-03-25T11:43:24;9.30;1.00
1461;DHT22;724;49.910;12.530;2024-03-25T11:45:50;9.00;1.00
1461;DHT22;724;49.910;12.530;2024-03-25T11:48:16;8.50;1.00
1461;DHT22;724;49.910;12.530;2024-03-25T11:50:45;8.00;1.00
1461;DHT22;724;49.910;12.530;2024-03-25T11:53:13;8.10;1.00
1461;DHT22;724;49.910;12.530;2024-03-25T11:55:39;8.70;1.00
1461;DHT22;724;49.910;12.530;2024-03-25T11:58:05;8.10;99.90
1461;DHT22;724;49.910;12.530;2024-03-25T12:00:31;8.40;99.90
1461;DHT22;724;49.910;12.530;2024-03-25T12:02:57;8.00;99.90
1461;DHT22;724;49.910;12.530;2024-03-25T12:05:23;8.10;99.90
1461;DHT22;724;49.910;12.530;2024-03-25T12:07:49;8.40;99.90
1461;DHT22;724;49.910;12.530;2024-03-25T12:10:17;9.10;99.90
1461;DHT22;724;49.910;12.530;2024-03-25T12:13:01;8.40;99.90
1461;DHT22;724;49.910;12.530;2024-03-25T12:15:27;8.50;99.90
1461;DHT22;724;49.910;12.530;2024-03-25T12:17:53;8.00;99.90
1461;DHT22;724;49.910;12.530;2024-03-25T12:20:20;8.10;99.90
1461;DHT22;724;49.910;12.530;2024-03-25T12:22:45;7.90;99.90
1461;DHT22;724;49.910;12.530;2024-03-25T12:25:11;7.70;99.90
1461;DHT22;724;49.910;12.530;2024-03-25T12:27:39;8.20;99.90
1461;DHT22;724;49.910;12.530;2024-03-25T12:30:07;8.10;99.90
1461;DHT22;724;49.910;12.530;2024-03-25T12:32:37;9.00;99.90
1461;DHT22;724;49.910;12.530;2024-03-25T12:35:06;8.30;99.90
1461;DHT22;724;49.910;12.530;2024-03-25T12:37:32;8.70;99.90
1461;DHT22;724;49.910;12.530;2024-03-25T12:39:58;8.70;99.90
1461;DHT22;724;49.910;12.530;2024-03-25T12:42:24;9.00;99.90
1461;DHT22;724;49.910;12.530;2024-03-25T12:44:51;9.00;99.90
1461;DHT22;724;49.910;12.530;2024-03-25T12:47:17;9.00;99.90
1461;DHT22;724;49.910;12.530;2024-03-25T12:49:43;8.90;99.90
1461;DHT22;724;49.910;12.530;2024-03-25T12:52:09;8.80;99.90
1461;DHT22;724;49.910;12.530;2024-03-25T12:54:34;8.30;99.90
1461;DHT22;724;49.910;12.530;2024-03-25T12:57:01;8.40;99.90
1461;DHT22;724;49.910;12.530;2024-03-25T12:59:27;6.50;99.90
1461;DHT22;724;49.910;12.530;2024-03-25T13:01:55;6.30;99.90
1461;DHT22;724;49.910;12.530;2024-03-25T13:04:21;6.70;99.90
1461;DHT22;724;49.910;12.530;2024-03-25T13:06:47;6.00;99.90
1461;DHT22;724;49.910;12.530;2024-03-25T13:09:13;5.90;99.90
1461;DHT22;724;49.910;12.530;2024-03-25T13:11:39;6.60;99.90
1461;DHT22;724;49.910;12.530;2024-03-25T13:14:05;6.80;99.90
1461;DHT22;724;49.910;12.530;2024-03-25T13:16:31;7.10;99.90
1461;DHT22;724;49.910;12.530;2024-03-25T13:18:59;7.00;99.90
1461;DHT22;724;49.910;12.530;2024-03-25T13:21:25;7.00;99.90
1461;DHT22;724;49.910;12.530;2024-03-25T13:23:51;7.20;99.90
1461;DHT22;724;49.910;12.530;2024-03-25T13:26:16;7.10;99.90
1461;DHT22;724;49.910;12.530;2024-03-25T13:28:42;7.60;99.90
1461;DHT22;724;49.910;12.530;2024-03-25T13:31:08;7.30;99.90
1461;DHT22;724;49.910;12.530;2024-03-25T13:33:34;6.90;99.90
1461;DHT22;724;49.910;12.530;2024-03-25T13:36:01;7.00;99.90
1461;DHT22;724;49.910;12.530;2024-03-25T13:38:27;6.80;99.90
1461;DHT22;724;49.910;12.530;2024-03-25T13:40:53;6.70;99.90
1461;DHT22;724;49.910;12.530;2024-03-25T13:43:19;6.90;99.90
1461;DHT22;724;49.910;12.530;2024-03-25T13:45:47;7.60;99.90
1461;DHT22;724;49.910;12.530;2024-03-25T13:48:14;8.30;99.90
1461;DHT22;724;49.910;12.530;2024-03-25T13:50:40;8.40;99.90
1461;DHT22;724;49.910;12.530;2024-03-25T13:53:07;8.10;99.90
1461;DHT22;724;49.910;12.530;2024-03-25T13:55:33;7.50;90.80
1461;DHT22;724;49.910;12.530;2024-03-25T13:57:59;7.80;99.90
1461;DHT22;724;49.910;12.530;2024-03-25T14:00:25;7.90;99.90
1461;DHT22;724;49.910;12.530;2024-03-25T14:02:51;8.10;99.90
1461;DHT22;724;49.910;12.530;2024-03-25T14:05:17;7.50;59.20
1461;DHT22;724;49.910;12.530;2024-03-25T14:07:43;7.60;71.90
1461;DHT22;724;49.910;12.530;2024-03-25T14:10:10;7.50;50.40
1461;DHT22;724;49.910;12.530;2024-03-25T14:12:36;7.60;57.40
1461;DHT22;724;49.910;12.530;2024-03-25T14:15:02;7.60;65.10
1461;DHT22;724;49.910;12.530;2024-03-25T14:17:28;7.60;66.70
1461;DHT22;724;49.910;12.530;2024-03-25T14:19:56;7.50;70.70
1461;DHT22;724;49.910;12.530;2024-03-25T14:22:22;8.30;93.20
1461;DHT22;724;49.910;12.530;2024-03-25T14:24:48;8.40;73.30
1461;DHT22;724;49.910;12.530;2024-03-25T14:27:15;8.10;56.10
1461;DHT22;724;49.910;12.530;2024-03-25T14:29:41;7.80;40.50
1461;DHT22;724;49.910;12.530;2024-03-25T14:32:08;7.90;46.30
1461;DHT22;724;49.910;12.530;2024-03-25T14:34:34;8.50;53.20
1461;DHT22;724;49.910;12.530;2024-03-25T14:36:59;8.10;31.50
1461;DHT22;724;49.910;12.530;2024-03-25T14:39:26;7.70;20.90
1461;DHT22;724;49.910;12.530;2024-03-25T14:41:51;7.50;15.60
1461;DHT22;724;49.910;12.530;2024-03-25T14:44:19;7.50;15.90
1461;DHT22;724;49.910;12.530;2024-03-25T14:46:44;7.60;18.10
1461;DHT22;724;49.910;12.530;2024-03-25T14:49:10;8.10;30.90
1461;DHT22;724;49.910;12.530;2024-03-25T14:51:36;8.40;27.90
1461;DHT22;724;49.910;12.530;2024-03-25T14:54:02;8.70;24.20
1461;DHT22;724;49.910;12.530;2024-03-25T14:56:28;8.80;8.40
1461;DHT22;724;49.910;12.530;2024-03-25T14:58:54;8.80;1.00
1461;DHT22;724;49.910;12.530;2024-03-25T15:01:22;9.30;12.00
1461;DHT22;724;49.910;12.530;2024-03-25T15:03:47;8.80;1.00
1461;DHT22;724;49.910;12.530;2024-03-25T15:06:13;7.80;1.00
1461;DHT22;724;49.910;12.530;2024-03-25T15:08:39;7.60;1.00
1461;DHT22;724;49.910;12.530;2024-03-25T15:11:05;7.40;1.00
1461;DHT22;724;49.910;12.530;2024-03-25T15:13:31;7.90;1.00
1461;DHT22;724;49.910;12.530;2024-03-25T15:15:57;8.30;1.00
1461;DHT22;724;49.910;12.530;2024-03-25T15:18:24;8.20;1.00
1461;DHT22;724;49.910;12.530;2024-03-25T15:21:00;7.30;1.00
1461;DHT22;724;49.910;12.530;2024-03-25T15:23:26;7.30;1.00
1461;DHT22;724;49.910;12.530;2024-03-25T15:25:51;7.80;1.00
1461;DHT22;724;49.910;12.530;2024-03-25T15:28:17;7.80;1.00
1461;DHT22;724;49.910;12.530;2024-03-25T15:30:43;7.60;1.00
1461;DHT22;724;49.910;12.530;2024-03-25T15:33:09;7.60;1.00
1461;DHT22;724;49.910;12.530;2024-03-25T15:35:36;7.50;1.00
1461;DHT22;724;49.910;12.530;2024-03-25T15:38:02;7.30;1.00
1461;DHT22;724;49.910;12.530;2024-03-25T15:40:28;7.20;1.00
1461;DHT22;724;49.910;12.530;2024-03-25T15:42:53;7.70;1.00
1461;DHT22;724;49.910;12.530;2024-03-25T15:45:19;7.80;1.00
1461;DHT22;724;49.910;12.530;2024-03-25T15:47:45;7.80;1.00
1461;DHT22;724;49.910;12.530;2024-03-25T15:50:11;7.90;1.00
1461;DHT22;724;49.910;12.530;2024-03-25T15:52:38;7.50;1.00
1461;DHT22;724;49.910;12.530;2024-03-25T15:55:05;7.20;1.00
1461;DHT22;724;49.910;12.530;2024-03-25T15:57:30;7.10;1.00
1461;DHT22;724;49.910;12.530;2024-03-25T15:59:56;6.90;1.00
1461;DHT22;724;49.910;12.530;2024-03-25T16:02:22;6.90;1.00
1461;DHT22;724;49.910;12.530;2024-03-25T16:04:48;6.80;1.00
1461;DHT22;724;49.910;12.530;2024-03-25T16:07:14;6.50;1.00
1461;DHT22;724;49.910;12.530;2024-03-25T16:09:41;6.40;1.00
1461;DHT22;724;49.910;12.530;2024-03-25T16:12:07;6.20;1.00
1461;DHT22;724;49.910;12.530;2024-03-25T16:14:33;6.10;1.00
1461;DHT22;724;49.910;12.530;2024-03-25T16:16:59;6.20;1.00
1461;DHT22;724;49.910;12.530;2024-03-25T16:19:25;6.20;1.00